Time;durP1;ratioP1;P1;durP2;ratioP2;P2;SDS_P1;SDS_P2;PMS_P1;PMS_P2;Temp;Humidity;BMP_temperature;BMP_pressure;BME280_temperature;BME280_humidity;BME280_pressure;Samples;Min_cycle;Max_cycle;Signal;HPM_P1;HPM_P2
2021/03/17 08:38:58;;;;;;;6.35;4.35;;;;;;;12.49;61.86;99560.47;1745675;78;22900;-62
2021/03/17 08:41:46;;;;;;;8.35;4.42;;;;;;;12.52;61.43;99562.15;1724252;82;21179;-63
2021/03/17 08:44:30;;;;;;;5.37;4.08;;;;;;;12.56;60.88;99556.29;1726853;82;21203;-64
2021/03/17 08:47:31;;;;;;;7.22;3.95;;;;;;;12.63;60.41;99557.80;1865116;75;22846;-64
2021/03/17 08:50:22;;;;;;;7.05;3.80;;;;;;;12.59;60.20;99551.78;1856025;76;21006;-60
2021/03/17 08:52:53;;;;;;;8.05;4.08;;;;;;;12.66;60.28;99556.38;1857094;76;22633;-61
2021/03/17 08:55:39;;;;;;;6.60;4.40;;;;;;;12.71;59.87;99554.44;1856435;76;21143;-62
2021/03/17 08:58:09;;;;;;;5.47;4.00;;;;;;;12.74;59.75;99559.61;1856233;76;21525;-61
2021/03/17 09:00:55;;;;;;;6.85;4.40;;;;;;;12.79;59.76;99548.41;1843447;76;23302;-61
2021/03/17 09:03:38;;;;;;;11.03;4.75;;;;;;;12.76;59.48;99549.84;1836703;77;21183;-61
2021/03/17 09:06:22;;;;;;;6.80;3.98;;;;;;;12.76;59.50;99551.16;1836798;77;22624;-61
2021/03/17 09:09:01;;;;;;;7.70;4.87;;;;;;;12.77;59.49;99550.73;1837288;77;21552;-60
2021/03/17 09:11:37;;;;;;;7.67;3.80;;;;;;;12.78;59.16;99548.47;1837065;77;21189;-61
2021/03/17 09:14:07;;;;;;;7.97;5.08;;;;;;;12.78;59.35;99552.42;1839151;77;21145;-61
2021/03/17 09:16:38;;;;;;;6.77;5.40;;;;;;;12.79;59.29;99555.48;1837687;78;21177;-61
2021/03/17 09:19:14;;;;;;;6.75;5.42;;;;;;;12.76;59.65;99557.77;1803783;78;22302;-62
2021/03/17 09:21:49;;;;;;;7.47;5.70;;;;;;;12.80;60.03;99551.93;1843747;76;22646;-62
2021/03/17 09:24:33;;;;;;;6.17;4.78;;;;;;;12.70;60.46;99562.42;1832904;77;21153;-60
2021/03/17 09:27:07;;;;;;;5.10;4.15;;;;;;;12.61;60.26;99562.28;1834097;77;21189;-60
2021/03/17 09:29:36;;;;;;;5.58;4.97;;;;;;;12.52;60.46;99567.42;1830581;77;21769;-59
2021/03/17 09:32:06;;;;;;;6.83;4.47;;;;;;;12.43;60.96;99568.60;1834770;77;21117;-59
2021/03/17 09:34:35;;;;;;;6.08;4.90;;;;;;;12.36;61.64;99573.69;1785122;78;21190;-59
2021/03/17 09:37:11;;;;;;;5.17;4.03;;;;;;;12.29;62.01;99571.73;1775995;79;21317;-63
2021/03/17 09:39:48;;;;;;;4.55;3.87;;;;;;;12.25;62.48;99571.89;1777260;79;21198;-62
2021/03/17 09:42:18;;;;;;;6.50;3.67;;;;;;;12.21;62.43;99577.70;1777823;79;21594;-63
2021/03/17 09:44:50;;;;;;;5.90;3.67;;;;;;;12.17;62.53;99575.22;1779234;79;21178;-62
2021/03/17 09:47:28;;;;;;;5.72;3.67;;;;;;;12.11;62.44;99573.21;1726260;80;21176;-64
2021/03/17 09:49:56;;;;;;;3.42;2.98;;;;;;;12.05;61.90;99570.75;1778497;79;21365;-62
2021/03/17 09:52:24;;;;;;;5.20;3.47;;;;;;;12.00;61.82;99563.47;1777295;79;22819;-65
2021/03/17 09:54:53;;;;;;;5.75;3.95;;;;;;;11.99;62.10;99572.28;1779554;79;21569;-71
2021/03/17 09:57:22;;;;;;;4.97;4.03;;;;;;;11.98;62.46;99573.64;1781021;80;21441;-72
2021/03/17 09:59:52;;;;;;;5.22;4.28;;;;;;;11.95;62.85;99575.48;1780639;80;21181;-70
2021/03/17 10:02:24;;;;;;;7.12;4.85;;;;;;;11.94;62.96;99575.53;1752414;80;21110;-67
2021/03/17 10:04:55;;;;;;;7.75;5.33;;;;;;;11.92;63.41;99576.88;1724074;82;21361;-61
2021/03/17 10:07:25;;;;;;;6.50;5.28;;;;;;;11.91;63.74;99574.28;1771997;80;21771;-62
2021/03/17 10:09:55;;;;;;;5.40;3.92;;;;;;;11.88;64.45;99575.23;1770394;80;21181;-64
2021/03/17 10:12:27;;;;;;;5.92;3.98;;;;;;;11.87;64.95;99578.77;1746473;82;21612;-67
2021/03/17 10:15:07;;;;;;;6.33;4.55;;;;;;;11.86;65.20;99577.51;1768852;80;21165;-65
2021/03/17 10:17:35;;;;;;;8.13;4.78;;;;;;;11.84;65.46;99575.39;1782307;79;21256;-69
2021/03/17 10:20:09;;;;;;;8.13;4.37;;;;;;;11.82;65.53;99583.78;1786160;80;21331;-66
2021/03/17 10:22:37;;;;;;;8.45;4.60;;;;;;;11.81;65.74;99578.12;1794417;79;21131;-67
2021/03/17 10:25:24;;;;;;;5.30;4.40;;;;;;;11.79;65.85;99574.22;1793359;78;21114;-66
2021/03/17 10:28:04;;;;;;;6.97;4.17;;;;;;;11.77;65.85;99574.27;1766488;81;21149;-64
2021/03/17 10:30:36;;;;;;;4.58;3.83;;;;;;;11.77;65.96;99571.64;1773485;79;21916;-64
2021/03/17 10:33:11;;;;;;;6.10;4.05;;;;;;;11.83;65.83;99571.02;1797574;79;21257;-64
2021/03/17 10:35:41;;;;;;;7.95;4.90;;;;;;;11.90;65.60;99567.28;1797454;79;21170;-64
2021/03/17 10:38:09;;;;;;;5.90;3.95;;;;;;;11.97;64.96;99566.20;1793982;79;21103;-63
2021/03/17 10:40:38;;;;;;;7.47;3.40;;;;;;;12.05;65.25;99565.48;1772151;80;21182;-62
2021/03/17 10:43:31;;;;;;;3.90;3.50;;;;;;;12.12;64.51;99569.64;1774663;80;22091;-70
2021/03/17 10:46:04;;;;;;;5.12;3.55;;;;;;;12.20;64.30;99568.53;1748364;81;21416;-55
2021/03/17 10:48:32;;;;;;;4.72;3.67;;;;;;;12.26;63.86;99557.77;1747483;81;21160;-55
2021/03/17 10:51:05;;;;;;;4.80;3.35;;;;;;;12.34;63.78;99558.37;1748332;81;21435;-55
2021/03/17 10:53:34;;;;;;;5.50;3.60;;;;;;;12.47;63.46;99556.19;1747398;81;21211;-55
2021/03/17 10:56:05;;;;;;;5.15;3.05;;;;;;;12.63;63.54;99561.77;1746435;81;21211;-55
2021/03/17 10:58:38;;;;;;;3.17;2.40;;;;;;;12.78;62.74;99548.03;1699683;81;21256;-55
2021/03/17 11:01:06;;;;;;;2.87;2.37;;;;;;;12.88;61.82;99548.53;1748333;81;21207;-55
2021/03/17 11:03:38;;;;;;;2.72;2.30;;;;;;;12.97;61.62;99552.62;1746485;81;21151;-54
2021/03/17 11:06:20;;;;;;;5.20;2.92;;;;;;;13.05;60.92;99546.61;1747610;81;21152;-54
2021/03/17 11:09:09;;;;;;;2.77;2.40;;;;;;;13.13;60.65;99552.91;1748606;81;23518;-53
2021/03/17 11:11:52;;;;;;;3.65;2.30;;;;;;;13.13;60.03;99544.52;1746820;82;21186;-53
2021/03/17 11:14:36;;;;;;;2.92;2.45;;;;;;;13.12;59.68;99536.22;1746993;81;21156;-54
2021/03/17 11:17:06;;;;;;;2.83;2.37;;;;;;;13.13;59.27;99540.56;1747851;81;21218;-53
2021/03/17 11:19:36;;;;;;;3.00;2.55;;;;;;;13.12;58.83;99541.50;1746572;81;21606;-54
2021/03/17 11:22:04;;;;;;;2.72;2.47;;;;;;;13.15;58.92;99539.17;1747769;81;21255;-53
2021/03/17 11:24:32;;;;;;;5.92;3.77;;;;;;;13.20;58.93;99539.41;1748161;81;21187;-54
2021/03/17 11:27:00;;;;;;;2.65;2.37;;;;;;;13.30;58.87;99537.29;1747913;81;21178;-54
2021/03/17 11:29:29;;;;;;;2.77;2.02;;;;;;;13.41;58.73;99531.61;1748196;81;21203;-55
2021/03/17 11:32:08;;;;;;;2.55;2.35;;;;;;;13.54;58.04;99535.95;1748411;81;21615;-54
2021/03/17 11:34:37;;;;;;;5.17;2.95;;;;;;;13.67;57.51;99532.34;1747752;81;21641;-54
2021/03/17 11:37:05;;;;;;;3.10;2.55;;;;;;;13.79;56.96;99535.83;1732304;81;21258;-53
2021/03/17 11:39:35;;;;;;;4.53;3.52;;;;;;;13.81;56.48;99541.05;1748562;81;21195;-55
2021/03/17 11:42:04;;;;;;;5.33;3.98;;;;;;;13.75;56.56;99538.64;1702301;83;21190;-53
2021/03/17 11:44:32;;;;;;;3.85;3.47;;;;;;;13.67;56.60;99542.91;1748394;81;21219;-53
2021/03/17 11:47:01;;;;;;;4.85;3.10;;;;;;;13.62;56.66;99538.29;1748128;81;22029;-53
2021/03/17 11:49:30;;;;;;;5.70;3.77;;;;;;;13.59;56.57;99542.38;1746469;81;21182;-54
2021/03/17 11:51:58;;;;;;;4.47;3.45;;;;;;;13.55;56.15;99540.30;1747900;81;21227;-54
2021/03/17 11:54:26;;;;;;;4.03;2.98;;;;;;;13.48;56.46;99542.34;1747756;81;21195;-54
2021/03/17 11:56:56;;;;;;;3.58;2.75;;;;;;;13.43;56.34;99540.33;1747842;81;21163;-53
2021/03/17 11:59:25;;;;;;;3.22;2.80;;;;;;;13.35;56.31;99536.66;1747276;81;22827;-53
2021/03/17 12:01:56;;;;;;;5.42;2.72;;;;;;;13.30;56.75;99541.69;1706792;82;28248;-54
2021/03/17 12:04:26;;;;;;;6.62;2.60;;;;;;;13.26;56.76;99544.92;1730330;81;21207;-54
2021/03/17 12:06:55;;;;;;;4.45;3.05;;;;;;;13.26;57.17;99543.60;1747139;81;21198;-54
2021/03/17 12:09:22;;;;;;;6.17;3.00;;;;;;;13.25;57.32;99542.34;1748073;81;21179;-52
2021/03/17 12:11:52;;;;;;;4.00;2.85;;;;;;;13.23;57.51;99541.08;1706477;82;21159;-54
2021/03/17 12:14:22;;;;;;;5.28;2.87;;;;;;;13.20;57.49;99538.56;1744578;81;21223;-54
2021/03/17 12:16:52;;;;;;;2.77;2.50;;;;;;;13.19;57.46;99539.00;1745010;81;21123;-54
2021/03/17 12:19:23;;;;;;;5.05;2.67;;;;;;;13.16;57.33;99540.44;1746996;81;21163;-53
2021/03/17 12:21:51;;;;;;;2.62;2.37;;;;;;;13.15;56.74;99539.17;1709545;82;21198;-54
2021/03/17 12:24:19;;;;;;;3.52;2.72;;;;;;;13.14;56.74;99539.65;1747195;81;21397;-55
2021/03/17 12:26:49;;;;;;;4.33;2.47;;;;;;;13.17;57.23;99540.00;1748651;81;21601;-55
2021/03/17 12:29:17;;;;;;;4.20;2.47;;;;;;;13.23;57.21;99535.80;1729599;81;21948;-54
2021/03/17 12:31:46;;;;;;;7.20;2.75;;;;;;;13.28;57.16;99541.75;1747169;81;21669;-54
2021/03/17 12:34:14;;;;;;;6.08;2.90;;;;;;;13.30;56.93;99540.37;1746838;81;21156;-54
2021/03/17 12:36:42;;;;;;;2.42;2.20;;;;;;;13.31;57.09;99536.81;1747394;81;22804;-53
2021/03/17 12:39:11;;;;;;;5.47;3.10;;;;;;;13.32;56.94;99541.19;1748283;81;21634;-54
2021/03/17 12:41:39;;;;;;;5.50;2.75;;;;;;;13.31;56.41;99544.27;1747834;81;21199;-54
2021/03/17 12:44:06;;;;;;;4.95;3.40;;;;;;;13.30;55.95;99539.93;1747448;82;21175;-54
2021/03/17 12:46:35;;;;;;;2.87;2.67;;;;;;;13.33;55.57;99536.28;1747716;81;21120;-54
2021/03/17 12:49:04;;;;;;;3.30;3.00;;;;;;;13.36;55.19;99538.84;1747886;81;22132;-54
2021/03/17 12:51:34;;;;;;;6.50;3.08;;;;;;;13.40;54.84;99530.34;1747206;81;22085;-54
2021/03/17 12:54:05;;;;;;;4.22;3.50;;;;;;;13.44;55.00;99538.09;1748081;81;21162;-67
2021/03/17 12:56:34;;;;;;;3.83;2.75;;;;;;;13.53;54.70;99535.08;1748111;81;21531;-66
2021/03/17 12:59:04;;;;;;;4.25;3.00;;;;;;;13.60;53.98;99532.19;1748084;81;21152;-66
2021/03/17 13:01:32;;;;;;;3.10;2.90;;;;;;;13.63;53.47;99534.73;1747547;81;21394;-68
2021/03/17 13:04:04;;;;;;;2.92;2.72;;;;;;;13.64;53.06;99530.70;1747979;81;21162;-65
2021/03/17 13:06:34;;;;;;;2.33;2.12;;;;;;;13.72;52.28;99531.23;1747694;81;21127;-55
2021/03/17 13:09:05;;;;;;;3.00;2.70;;;;;;;13.80;52.17;99536.20;1746536;81;21724;-65
2021/03/17 13:11:36;;;;;;;3.45;2.90;;;;;;;13.89;51.80;99530.56;1747490;82;21814;-65
2021/03/17 13:14:06;;;;;;;4.03;2.60;;;;;;;13.98;51.48;99530.62;1747958;81;21506;-64
2021/03/17 13:16:35;;;;;;;2.47;2.15;;;;;;;14.10;51.55;99530.56;1748231;81;21183;-54
2021/03/17 13:29:56;;;;;;;4.25;2.47;;;;;;;14.57;50.14;99533.43;1729555;80;21243;-64
2021/03/17 13:36:38;;;;;;;2.98;2.35;;;;;;;14.64;49.68;99531.39;1744551;81;21223;-72
2021/03/17 13:57:50;;;;;;;3.10;2.10;;;;;;;14.97;49.70;99534.80;1530873;89;21456;-52
2021/03/17 14:00:31;;;;;;;2.95;2.10;;;;;;;14.96;49.67;99536.56;1842944;76;22343;-53
2021/03/17 14:03:00;;;;;;;3.08;2.60;;;;;;;14.83;49.86;99540.70;1808385;76;21141;-54
2021/03/17 14:05:28;;;;;;;6.00;2.70;;;;;;;14.74;50.09;99543.29;1808695;78;22610;-53
2021/03/17 14:07:56;;;;;;;3.27;2.70;;;;;;;14.63;50.63;99547.75;1806226;78;21172;-53
2021/03/17 14:10:28;;;;;;;3.92;2.50;;;;;;;14.54;50.77;99549.45;1807130;77;21161;-53
2021/03/17 14:12:55;;;;;;;4.55;2.35;;;;;;;14.42;50.90;99552.16;1810335;77;21196;-53
2021/03/17 14:15:23;;;;;;;2.60;2.22;;;;;;;14.29;51.03;99557.58;1807820;76;21141;-54
2021/03/17 14:17:52;;;;;;;2.67;1.82;;;;;;;14.16;51.31;99558.11;1809785;77;22204;-54
2021/03/17 14:20:22;;;;;;;2.05;1.85;;;;;;;14.06;51.56;99556.77;1808608;78;21148;-54
2021/03/17 14:22:51;;;;;;;3.33;2.30;;;;;;;13.99;51.92;99557.48;1810337;77;21145;-62
2021/03/17 14:25:20;;;;;;;2.98;2.12;;;;;;;13.97;52.08;99564.63;1807537;78;21771;-61
2021/03/17 14:27:47;;;;;;;2.83;2.60;;;;;;;13.97;52.20;99562.42;1811521;77;21546;-62
2021/03/17 14:30:17;;;;;;;2.02;1.62;;;;;;;13.96;52.14;99561.57;1808736;77;22046;-62
2021/03/17 14:32:45;;;;;;;4.05;1.70;;;;;;;13.97;51.97;99564.63;1812703;77;21559;-63
2021/03/17 14:35:15;;;;;;;2.10;1.90;;;;;;;13.96;51.89;99572.14;1811188;77;21169;-63
2021/03/17 14:37:43;;;;;;;1.90;1.80;;;;;;;13.95;52.05;99573.53;1806925;77;21144;-64
2021/03/17 14:40:12;;;;;;;3.50;2.00;;;;;;;13.93;51.70;99577.56;1813616;77;21220;-63
2021/03/17 14:42:40;;;;;;;2.65;1.85;;;;;;;13.87;51.68;99573.38;1811239;77;21189;-62
2021/03/17 14:45:10;;;;;;;2.90;2.20;;;;;;;13.77;51.81;99579.11;1805898;76;21552;-62
2021/03/17 14:47:38;;;;;;;3.40;2.35;;;;;;;13.67;52.03;99586.09;1807593;77;21176;-61
2021/03/17 14:50:07;;;;;;;3.05;2.17;;;;;;;13.62;52.10;99589.83;1757732;80;21167;-58
2021/03/17 14:52:35;;;;;;;2.67;2.30;;;;;;;13.54;52.16;99587.02;1750607;79;21186;-60
2021/03/17 14:55:07;;;;;;;3.05;2.70;;;;;;;13.46;52.51;99590.88;1748283;79;22832;-60
2021/03/17 14:57:34;;;;;;;3.80;3.40;;;;;;;13.36;52.68;99587.72;1752296;79;21203;-60
2021/03/17 15:00:07;;;;;;;4.12;3.20;;;;;;;13.28;52.64;99589.77;1762789;79;21138;-61
2021/03/17 15:02:35;;;;;;;3.72;3.27;;;;;;;13.16;52.66;99595.91;1741098;80;21613;-61
2021/03/17 15:05:04;;;;;;;4.67;2.90;;;;;;;13.05;52.88;99594.58;1767815;79;21157;-62
2021/03/17 15:07:34;;;;;;;3.47;2.90;;;;;;;12.94;53.10;99598.94;1765863;78;21197;-61
2021/03/17 15:10:06;;;;;;;3.95;2.87;;;;;;;12.82;53.47;99599.77;1738840;79;21195;-61
2021/03/17 15:12:35;;;;;;;4.47;2.98;;;;;;;12.73;54.02;99600.58;1766391;78;21419;-61
2021/03/17 15:15:06;;;;;;;3.10;2.80;;;;;;;12.61;54.46;99609.31;1735185;80;21237;-61
2021/03/17 15:17:36;;;;;;;5.53;3.50;;;;;;;12.55;55.06;99607.36;1759479;79;21621;-63
2021/03/17 15:20:08;;;;;;;6.25;3.55;;;;;;;12.49;55.24;99604.00;1752487;80;21209;-51
2021/03/17 15:22:35;;;;;;;4.53;2.83;;;;;;;12.42;55.56;99607.77;1752115;79;21210;-53
2021/03/17 15:25:04;;;;;;;5.15;3.25;;;;;;;12.34;55.93;99615.09;1761989;78;21669;-52
2021/03/17 15:27:34;;;;;;;5.58;3.17;;;;;;;12.28;56.12;99621.89;1758571;78;21205;-53
2021/03/17 15:30:06;;;;;;;6.35;3.45;;;;;;;12.22;56.13;99617.68;1760004;78;21122;-52
2021/03/17 15:32:34;;;;;;;3.35;3.05;;;;;;;12.16;56.34;99624.91;1758711;78;21249;-52
2021/03/17 15:35:06;;;;;;;4.33;2.52;;;;;;;12.08;56.51;99630.44;1757333;80;21169;-53
2021/03/17 15:37:36;;;;;;;3.87;2.65;;;;;;;12.01;56.71;99626.27;1769146;78;21213;-52
2021/03/17 15:40:11;;;;;;;5.45;2.75;;;;;;;11.95;56.95;99629.95;1761119;79;21146;-51
2021/03/17 15:42:40;;;;;;;3.50;2.83;;;;;;;11.88;57.08;99628.42;1761297;79;21165;-53
2021/03/17 15:45:14;;;;;;;2.87;2.35;;;;;;;11.79;57.22;99632.20;1758362;79;21687;-52
2021/03/17 15:47:41;;;;;;;3.35;2.40;;;;;;;11.72;57.41;99638.10;1760061;78;21627;-53
2021/03/17 15:50:16;;;;;;;6.58;3.08;;;;;;;11.63;57.65;99642.34;1756418;80;21189;-53
2021/03/17 15:52:44;;;;;;;2.65;2.30;;;;;;;11.56;57.99;99641.64;1758307;80;21556;-54
2021/03/17 15:55:12;;;;;;;2.52;2.33;;;;;;;11.52;58.10;99641.36;1759484;79;21643;-52
2021/03/17 15:57:39;;;;;;;4.30;2.55;;;;;;;11.50;58.29;99642.30;1764604;79;21194;-54
2021/03/17 16:00:13;;;;;;;3.12;2.33;;;;;;;11.47;58.29;99647.66;1753255;79;21205;-53
2021/03/17 16:02:41;;;;;;;3.90;2.40;;;;;;;11.41;58.49;99648.23;1750220;80;21170;-53
2021/03/17 16:05:11;;;;;;;8.10;4.30;;;;;;;11.34;58.76;99648.46;1751172;80;21158;-53
2021/03/17 16:07:38;;;;;;;6.17;3.83;;;;;;;11.31;59.10;99658.66;1749742;80;21560;-54
2021/03/17 16:10:12;;;;;;;10.98;8.50;;;;;;;11.28;59.24;99661.34;1727930;80;21209;-53
2021/03/17 16:12:44;;;;;;;9.28;7.97;;;;;;;11.28;59.56;99666.61;1749603;80;21216;-54
2021/03/17 16:15:15;;;;;;;7.55;6.12;;;;;;;11.26;59.64;99664.02;1749988;80;21138;-54
2021/03/17 16:17:43;;;;;;;10.88;8.38;;;;;;;11.24;59.90;99675.06;1751300;80;21575;-54
2021/03/17 16:20:15;;;;;;;19.55;11.93;;;;;;;11.22;60.00;99676.01;1753723;80;21139;-53
2021/03/17 16:22:43;;;;;;;9.47;6.93;;;;;;;11.19;60.23;99674.34;1751711;80;21221;-55
2021/03/17 16:25:14;;;;;;;11.28;7.05;;;;;;;11.17;60.36;99684.03;1751359;79;21161;-54
2021/03/17 16:27:41;;;;;;;9.05;4.30;;;;;;;11.16;60.46;99690.66;1750626;80;21242;-54
2021/03/17 16:30:12;;;;;;;6.50;3.90;;;;;;;11.10;60.55;99690.38;1750271;80;21154;-53
2021/03/17 16:32:42;;;;;;;7.22;4.97;;;;;;;11.00;60.76;99688.45;1749235;79;21205;-65
2021/03/17 16:35:12;;;;;;;7.58;4.50;;;;;;;10.91;61.11;99697.45;1756681;79;21445;-66
2021/03/17 16:37:40;;;;;;;16.30;8.33;;;;;;;10.81;61.44;99697.75;1764270;79;21268;-66
2021/03/17 16:40:11;;;;;;;29.67;14.73;;;;;;;10.76;61.67;99699.62;1754309;79;21173;-62
2021/03/17 16:42:44;;;;;;;14.05;8.60;;;;;;;10.70;61.78;99697.57;1751178;80;21261;-62
2021/03/17 16:45:16;;;;;;;13.40;7.85;;;;;;;10.67;61.94;99700.71;1753394;79;21301;-66
2021/03/17 16:47:43;;;;;;;24.70;12.05;;;;;;;10.62;61.87;99702.61;1750233;80;22820;-64
2021/03/17 16:50:17;;;;;;;26.93;14.28;;;;;;;10.56;61.82;99704.47;1751459;80;21149;-64
2021/03/17 16:52:50;;;;;;;32.45;18.27;;;;;;;10.52;61.69;99708.53;1757014;79;21091;-64
2021/03/17 16:55:32;;;;;;;51.92;25.15;;;;;;;10.45;61.67;99707.84;1751348;80;21177;-67
2021/03/17 16:58:04;;;;;;;32.17;17.48;;;;;;;10.36;61.55;99704.97;1750758;80;21174;-65
2021/03/17 17:00:32;;;;;;;26.50;19.13;;;;;;;10.32;61.53;99709.85;1744516;80;21528;-62
2021/03/17 17:03:00;;;;;;;11.78;8.30;;;;;;;10.29;61.45;99712.56;1753872;80;21356;-63
2021/03/17 17:05:28;;;;;;;10.55;6.20;;;;;;;10.26;61.43;99715.69;1738249;82;21202;-63
2021/03/17 17:07:56;;;;;;;10.10;5.80;;;;;;;10.20;61.46;99715.41;1767460;80;21175;-65
2021/03/17 17:10:25;;;;;;;8.45;5.85;;;;;;;10.14;61.40;99716.41;1776612;79;21187;-63
2021/03/17 17:12:54;;;;;;;6.97;5.05;;;;;;;10.07;61.47;99720.53;1796277;79;21198;-62
2021/03/17 17:15:21;;;;;;;12.25;5.78;;;;;;;9.99;61.76;99718.94;1747188;80;21183;-63
2021/03/17 17:17:51;;;;;;;11.43;4.97;;;;;;;9.94;61.88;99725.19;1757968;81;21148;-67
2021/03/17 17:20:20;;;;;;;11.55;6.58;;;;;;;9.88;61.94;99726.17;1722000;83;21177;-67
2021/03/17 17:22:48;;;;;;;9.88;6.47;;;;;;;9.84;61.91;99731.08;1724511;80;21583;-61
2021/03/17 17:25:16;;;;;;;9.95;6.20;;;;;;;9.80;61.98;99726.34;1770150;80;21336;-65
2021/03/17 17:27:44;;;;;;;8.63;5.40;;;;;;;9.77;62.02;99734.72;1742877;80;21206;-62
2021/03/17 17:30:20;;;;;;;7.22;5.12;;;;;;;9.72;62.13;99735.28;1731769;80;21608;-62
2021/03/17 17:32:43;;;;;;;6.08;4.67;;;;;;;9.73;62.13;99735.25;1739948;80;21226;-63
2021/03/17 17:35:12;;;;;;;6.95;5.03;;;;;;;9.78;62.13;99739.09;1753942;80;21166;-69
2021/03/17 17:37:42;;;;;;;7.37;4.65;;;;;;;9.78;62.11;99736.03;1776189;80;21146;-64
2021/03/17 17:40:11;;;;;;;8.65;5.22;;;;;;;9.78;62.15;99740.41;1731012;80;21134;-63
2021/03/17 17:42:38;;;;;;;4.75;4.20;;;;;;;9.76;62.12;99740.89;1740009;80;21833;-62
2021/03/17 17:45:08;;;;;;;10.03;5.17;;;;;;;9.76;62.22;99746.16;1757469;81;21206;-64
2021/03/17 17:47:36;;;;;;;6.35;5.12;;;;;;;9.76;62.16;99744.38;1749896;80;21178;-64
2021/03/17 17:50:07;;;;;;;8.43;6.10;;;;;;;9.76;62.28;99746.16;1756046;80;21413;-61
2021/03/17 17:52:35;;;;;;;7.97;5.35;;;;;;;9.78;62.15;99746.55;1744378;80;21174;-62
2021/03/17 17:55:07;;;;;;;7.20;5.15;;;;;;;9.79;62.02;99745.62;1742278;81;21211;-60
2021/03/17 17:57:36;;;;;;;7.28;5.33;;;;;;;9.82;61.91;99747.33;1741100;80;21414;-64
2021/03/17 18:00:08;;;;;;;8.80;4.92;;;;;;;9.85;61.74;99748.12;1743553;80;21139;-61
2021/03/17 18:02:36;;;;;;;7.50;5.35;;;;;;;9.87;61.65;99745.45;1738804;80;21484;-65
2021/03/17 18:05:07;;;;;;;7.42;5.90;;;;;;;9.91;61.54;99743.64;1734727;80;21147;-64
2021/03/17 18:07:35;;;;;;;5.97;5.15;;;;;;;9.92;61.61;99740.98;1742206;80;21158;-63
2021/03/17 18:10:05;;;;;;;7.28;4.90;;;;;;;9.95;61.63;99738.75;1738414;80;21680;-64
2021/03/17 18:12:33;;;;;;;6.28;4.25;;;;;;;10.03;61.45;99735.06;1756194;80;21149;-64
2021/03/17 18:15:04;;;;;;;7.87;5.55;;;;;;;10.09;61.25;99737.97;1739314;80;21193;-64
2021/03/17 18:17:32;;;;;;;7.90;6.65;;;;;;;10.19;60.95;99738.64;1739697;80;21190;-65
2021/03/17 18:19:59;;;;;;;11.70;7.50;;;;;;;10.23;60.68;99739.00;1740958;80;21202;-67
2021/03/17 18:22:27;;;;;;;10.82;7.45;;;;;;;10.21;60.51;99741.66;1755699;80;21198;-66
2021/03/17 18:24:55;;;;;;;14.68;8.63;;;;;;;10.13;60.55;99739.64;1756965;81;21162;-63
2021/03/17 18:27:24;;;;;;;12.03;8.45;;;;;;;10.07;60.70;99741.09;1740354;81;21428;-63
2021/03/17 18:29:52;;;;;;;9.43;7.70;;;;;;;10.04;60.74;99739.39;1739060;80;21565;-64
2021/03/17 18:32:20;;;;;;;10.18;7.78;;;;;;;10.00;60.88;99739.03;1738302;80;21230;-63
2021/03/17 18:34:48;;;;;;;11.90;8.50;;;;;;;9.98;60.98;99740.84;1739786;81;21217;-64
2021/03/17 18:37:16;;;;;;;8.85;7.30;;;;;;;9.94;60.97;99739.17;1749945;80;21209;-68
2021/03/17 18:39:44;;;;;;;13.45;9.38;;;;;;;9.88;61.08;99746.34;1741125;80;22071;-66
2021/03/17 18:42:12;;;;;;;10.98;9.15;;;;;;;9.83;61.17;99746.44;1753313;80;21177;-66
2021/03/17 18:44:40;;;;;;;10.93;9.10;;;;;;;9.83;61.27;99746.44;1739256;81;21202;-67
2021/03/17 18:47:09;;;;;;;11.45;8.70;;;;;;;9.84;61.25;99749.47;1750870;81;21268;-66
2021/03/17 18:49:36;;;;;;;11.18;8.60;;;;;;;9.77;61.29;99752.69;1757214;80;21181;-65
2021/03/17 18:52:04;;;;;;;11.30;7.53;;;;;;;9.70;61.39;99755.02;1740535;80;22146;-66
2021/03/17 18:54:32;;;;;;;11.20;9.10;;;;;;;9.61;61.58;99753.90;1747310;80;21142;-67
2021/03/17 18:57:00;;;;;;;13.00;8.90;;;;;;;9.57;61.80;99757.47;1749553;80;21191;-68
2021/03/17 18:59:28;;;;;;;13.45;10.95;;;;;;;9.55;61.91;99756.19;1740594;80;21146;-64
2021/03/17 19:01:57;;;;;;;13.38;11.30;;;;;;;9.56;61.93;99750.05;1760439;79;21788;-61
2021/03/17 19:04:25;;;;;;;14.03;10.55;;;;;;;9.52;62.01;99754.09;1745522;80;21195;-60
2021/03/17 19:06:54;;;;;;;15.93;11.60;;;;;;;9.45;62.17;99754.64;1756211;80;21183;-59
2021/03/17 19:09:22;;;;;;;12.20;9.63;;;;;;;9.41;62.29;99752.96;1756376;80;21186;-59
2021/03/17 19:11:49;;;;;;;13.95;9.08;;;;;;;9.36;62.45;99756.14;1755857;80;21171;-62
2021/03/17 19:14:17;;;;;;;12.05;9.70;;;;;;;9.31;62.74;99770.20;1756516;81;21210;-62
2021/03/17 19:16:45;;;;;;;12.43;9.93;;;;;;;9.27;62.92;99763.27;1752146;80;21323;-52
2021/03/17 19:19:14;;;;;;;17.15;12.03;;;;;;;9.28;63.00;99768.95;1753872;80;21177;-55
2021/03/17 19:21:42;;;;;;;25.05;19.77;;;;;;;9.28;63.00;99768.95;1749617;79;21572;-53
2021/03/17 19:24:13;;;;;;;22.52;17.67;;;;;;;9.23;62.92;99764.67;1748859;80;21185;-53
2021/03/17 19:26:41;;;;;;;23.67;16.37;;;;;;;9.14;62.99;99767.02;1749724;79;21230;-56
2021/03/17 19:29:11;;;;;;;34.30;22.10;;;;;;;9.11;63.12;99767.08;1749635;79;21225;-53
2021/03/17 19:31:39;;;;;;;38.63;22.30;;;;;;;9.10;62.97;99770.58;1752733;79;21269;-61
2021/03/17 19:34:10;;;;;;;34.08;22.20;;;;;;;9.00;63.06;99772.95;1755380;80;21661;-52
2021/03/17 19:36:40;;;;;;;34.58;22.75;;;;;;;8.92;63.22;99774.39;1749300;80;21193;-53
2021/03/17 19:39:21;;;;;;;34.18;21.27;;;;;;;8.86;63.29;99773.19;1748031;80;21310;-52
2021/03/17 19:41:49;;;;;;;27.60;18.87;;;;;;;8.85;63.36;99774.96;1748758;80;21755;-54
2021/03/17 19:44:17;;;;;;;30.08;18.27;;;;;;;8.89;63.40;99772.71;1748591;80;21587;-54
2021/03/17 19:46:45;;;;;;;24.50;17.32;;;;;;;8.94;63.42;99777.88;1751175;79;21280;-54
2021/03/17 19:49:14;;;;;;;30.57;20.30;;;;;;;8.96;63.38;99772.15;1756371;80;21186;-53
2021/03/17 19:52:05;;;;;;;32.03;19.07;;;;;;;8.95;63.23;99775.23;1776814;80;21126;-54
2021/03/17 19:54:51;;;;;;;28.55;18.20;;;;;;;8.96;63.04;99777.39;1779592;80;22118;-53
2021/03/17 19:57:37;;;;;;;23.55;16.20;;;;;;;8.94;63.18;99774.80;1762782;79;21393;-52
2021/03/17 20:00:26;;;;;;;23.57;16.75;;;;;;;9.00;63.13;99779.50;1780845;79;22808;-52
2021/03/17 20:02:59;;;;;;;18.42;14.68;;;;;;;9.04;62.98;99783.39;1776914;79;21160;-53
2021/03/17 20:05:27;;;;;;;21.40;14.30;;;;;;;9.06;62.90;99778.11;1765404;80;21162;-52
2021/03/17 20:07:55;;;;;;;17.27;12.78;;;;;;;9.08;62.81;99778.94;1767836;78;22112;-53
2021/03/17 20:10:23;;;;;;;14.13;10.53;;;;;;;9.11;62.71;99777.58;1778976;79;21626;-52
2021/03/17 20:12:51;;;;;;;13.48;9.95;;;;;;;9.10;62.71;99778.03;1766129;79;21182;-53
2021/03/17 20:15:25;;;;;;;13.40;9.08;;;;;;;9.03;62.81;99773.78;1785578;77;21133;-53
2021/03/17 20:17:53;;;;;;;11.35;7.83;;;;;;;8.97;63.06;99776.05;1796157;79;21155;-54
2021/03/17 20:20:23;;;;;;;10.80;7.95;;;;;;;8.97;63.27;99779.98;1778444;78;21360;-53
2021/03/17 20:22:53;;;;;;;9.43;6.70;;;;;;;9.00;63.34;99775.14;1766073;80;21197;-54
2021/03/17 20:25:23;;;;;;;8.75;6.10;;;;;;;9.08;63.32;99778.48;1765919;81;21146;-53
2021/03/17 20:27:55;;;;;;;8.15;6.83;;;;;;;9.21;63.16;99788.33;1771839;79;21135;-53
2021/03/17 20:30:29;;;;;;;8.03;6.17;;;;;;;9.31;62.90;99782.48;1776349;79;21118;-52
2021/03/17 20:33:00;;;;;;;8.40;6.05;;;;;;;9.37;62.67;99784.98;1786036;78;21356;-55
2021/03/17 20:35:29;;;;;;;8.83;5.97;;;;;;;9.38;62.52;99781.45;1776286;80;21221;-54
2021/03/17 20:37:59;;;;;;;8.70;6.08;;;;;;;9.34;62.45;99787.67;1773587;78;21531;-55
2021/03/17 20:40:27;;;;;;;6.75;5.85;;;;;;;9.28;62.49;99778.14;1790607;78;22028;-53
2021/03/17 20:43:13;;;;;;;12.00;7.22;;;;;;;9.27;62.55;99781.65;1780722;78;21206;-53
2021/03/17 20:45:41;;;;;;;9.48;7.17;;;;;;;9.22;62.52;99776.95;1779095;79;21202;-54
2021/03/17 20:48:09;;;;;;;13.53;8.30;;;;;;;9.19;62.55;99778.74;1764212;79;21630;-52
2021/03/17 20:50:39;;;;;;;11.95;9.60;;;;;;;9.14;62.54;99780.14;1758642;79;21188;-53
2021/03/17 20:53:08;;;;;;;14.15;10.50;;;;;;;9.11;62.60;99785.45;1763950;80;21168;-53
2021/03/17 20:55:41;;;;;;;11.97;8.73;;;;;;;9.08;62.61;99786.36;1763997;81;21128;-53
2021/03/17 20:58:12;;;;;;;9.98;7.83;;;;;;;9.05;62.64;99789.03;1765989;79;21211;-53
2021/03/17 21:00:48;;;;;;;12.23;9.17;;;;;;;9.02;62.75;99782.98;1763655;80;21492;-53